createdAt,value
2022-12-16T00:01:37.360Z,93.24
2022-12-16T00:04:06.085Z,93.31
2022-12-16T00:06:35.621Z,93.40
2022-12-16T00:09:04.585Z,93.35
2022-12-16T00:11:33.137Z,92.79
2022-12-16T00:14:01.954Z,93.38
2022-12-16T00:16:30.764Z,94.22
2022-12-16T00:18:59.422Z,94.41
2022-12-16T00:21:29.969Z,94.24
2022-12-16T00:23:58.946Z,94.31
2022-12-16T00:26:30.092Z,94.21
2022-12-16T00:28:58.985Z,94.30
2022-12-16T00:31:28.049Z,94.20
2022-12-16T00:34:00.214Z,94.16
2022-12-16T00:36:29.210Z,94.75
2022-12-16T00:38:57.914Z,94.91
2022-12-16T00:41:26.508Z,95.05
2022-12-16T00:43:55.164Z,95.09
2022-12-16T00:46:23.867Z,95.13
2022-12-16T00:48:52.565Z,95.06
2022-12-16T00:51:21.248Z,95.31
2022-12-16T00:53:49.829Z,95.21
2022-12-16T00:56:19.817Z,94.77
2022-12-16T00:58:48.360Z,94.96
2022-12-16T01:01:16.878Z,95.29
2022-12-16T01:03:45.628Z,95.78
2022-12-16T01:06:17.765Z,96.01
2022-12-16T01:08:49.048Z,96.29
2022-12-16T01:11:20.483Z,95.89
2022-12-16T01:13:52.785Z,95.36
2022-12-16T01:16:23.873Z,94.98
2022-12-16T01:18:52.509Z,94.88
2022-12-16T01:21:21.327Z,95.00
2022-12-16T01:23:49.796Z,95.69
2022-12-16T01:26:19.167Z,95.59
2022-12-16T01:28:50.954Z,95.35
2022-12-16T01:31:21.594Z,95.47
2022-12-16T01:33:51.091Z,95.40
2022-12-16T01:36:20.292Z,94.96
2022-12-16T01:38:49.005Z,95.03
2022-12-16T01:41:18.145Z,95.12
2022-12-16T01:43:47.573Z,94.84
2022-12-16T01:46:23.968Z,95.12
2022-12-16T01:49:04.124Z,94.94
2022-12-16T01:51:37.521Z,94.64
2022-12-16T01:54:15.291Z,94.96
2022-12-16T01:56:54.249Z,94.63
2022-12-16T01:59:28.844Z,94.68
2022-12-16T02:01:59.494Z,94.60
2022-12-16T02:04:28.500Z,94.30
2022-12-16T02:06:57.545Z,93.99
2022-12-16T02:09:26.495Z,94.17
2022-12-16T02:12:06.966Z,93.99
2022-12-16T02:15:10.648Z,93.36
2022-12-16T02:18:03.357Z,93.22
2022-12-16T02:20:54.378Z,93.21
2022-12-16T02:23:48.792Z,93.41
2022-12-16T02:26:57.591Z,93.01
2022-12-16T02:30:00.973Z,93.16
2022-12-16T02:33:15.552Z,92.66
2022-12-16T02:36:07.592Z,92.78
2022-12-16T02:39:08.793Z,92.94
2022-12-16T02:41:58.410Z,93.15
2022-12-16T02:44:35.500Z,93.12
2022-12-16T02:47:04.178Z,92.94
2022-12-16T02:49:32.908Z,92.72
2022-12-16T02:52:02.571Z,92.54
2022-12-16T02:54:31.256Z,92.40
2022-12-16T02:57:08.852Z,92.43
2022-12-16T02:59:51.369Z,92.17
2022-12-16T03:02:22.652Z,91.96
2022-12-16T03:04:53.868Z,91.72
2022-12-16T03:07:26.844Z,91.64
2022-12-16T03:09:59.242Z,91.48
2022-12-16T03:12:28.034Z,91.58
2022-12-16T03:14:56.687Z,91.64
2022-12-16T03:17:28.031Z,91.62
2022-12-16T03:20:10.980Z,91.57
2022-12-16T03:22:44.858Z,91.47
2022-12-16T03:25:14.499Z,91.49
2022-12-16T03:28:17.355Z,91.58
2022-12-16T03:30:57.267Z,91.34
2022-12-16T03:33:34.584Z,90.82
2022-12-16T03:36:17.352Z,90.54
2022-12-16T03:38:47.529Z,90.51
2022-12-16T03:41:19.725Z,90.41
2022-12-16T03:43:49.830Z,90.45
2022-12-16T03:46:18.858Z,90.32
2022-12-16T03:48:52.301Z,90.21
2022-12-16T03:51:21.029Z,89.91
2022-12-16T03:53:49.601Z,89.87
2022-12-16T03:56:18.464Z,90.17
2022-12-16T03:58:47.458Z,90.08
2022-12-16T04:01:16.108Z,89.99
2022-12-16T04:03:44.892Z,89.87
2022-12-16T04:06:13.611Z,90.00
2022-12-16T04:08:42.299Z,90.03
2022-12-16T04:11:29.520Z,90.05
2022-12-16T04:14:16.574Z,89.99
2022-12-16T04:17:04.357Z,89.89
2022-12-16T04:19:55.729Z,89.86
2022-12-16T04:22:52.123Z,89.55
2022-12-16T04:25:29.000Z,89.30
2022-12-16T04:27:58.813Z,89.46
2022-12-16T04:30:29.040Z,89.09
2022-12-16T04:33:19.841Z,88.88
2022-12-16T04:36:06.782Z,88.98
2022-12-16T04:38:54.304Z,88.89
2022-12-16T04:41:41.529Z,88.97
2022-12-16T04:44:29.894Z,88.97
2022-12-16T04:47:17.194Z,89.07
2022-12-16T04:50:04.385Z,89.15
2022-12-16T04:52:51.709Z,89.04
2022-12-16T04:55:39.349Z,89.21
2022-12-16T04:58:26.759Z,89.24
2022-12-16T05:01:14.046Z,89.54
2022-12-16T05:04:01.645Z,89.41
2022-12-16T05:06:48.900Z,89.25
2022-12-16T05:09:36.285Z,89.38
2022-12-16T05:12:23.453Z,89.67
2022-12-16T05:15:10.708Z,89.65
2022-12-16T05:17:58.222Z,89.70
2022-12-16T05:20:45.345Z,89.44
2022-12-16T05:23:32.763Z,89.40
2022-12-16T05:26:19.849Z,89.07
2022-12-16T05:29:06.900Z,88.79
2022-12-16T05:31:54.234Z,88.56
2022-12-16T05:34:41.661Z,88.95
2022-12-16T05:37:28.941Z,88.92
2022-12-16T05:40:16.260Z,89.23
2022-12-16T05:43:09.813Z,89.79
2022-12-16T05:45:59.672Z,90.12
2022-12-16T05:48:47.983Z,90.67
2022-12-16T05:51:35.440Z,90.53
2022-12-16T05:54:22.929Z,90.26
2022-12-16T05:57:11.049Z,90.22
2022-12-16T06:00:00.955Z,90.10
2022-12-16T06:02:48.686Z,89.88
2022-12-16T06:05:36.201Z,89.84
2022-12-16T06:08:23.477Z,89.40
2022-12-16T06:11:10.725Z,89.34
2022-12-16T06:13:57.838Z,89.27
2022-12-16T06:16:44.912Z,89.29
2022-12-16T06:19:32.268Z,89.27
2022-12-16T06:22:19.534Z,89.87
2022-12-16T06:25:06.699Z,89.69
2022-12-16T06:27:53.752Z,89.52
2022-12-16T06:30:40.986Z,88.98
2022-12-16T06:33:28.110Z,88.41
2022-12-16T06:36:16.781Z,88.47
2022-12-16T06:39:03.985Z,88.46
2022-12-16T06:41:51.416Z,88.49
2022-12-16T06:44:38.407Z,88.68
2022-12-16T06:47:25.458Z,88.49
2022-12-16T06:50:13.457Z,88.44
2022-12-16T06:53:02.471Z,88.17
2022-12-16T06:55:49.720Z,88.51
2022-12-16T06:58:36.729Z,88.47
2022-12-16T07:01:24.178Z,88.55
2022-12-16T07:04:12.528Z,88.70
2022-12-16T07:07:02.665Z,88.66
2022-12-16T07:09:49.799Z,88.90
2022-12-16T07:12:36.848Z,88.87
2022-12-16T07:15:26.254Z,88.78
2022-12-16T07:18:13.828Z,88.98
2022-12-16T07:21:00.990Z,88.88
2022-12-16T07:23:48.461Z,88.97
2022-12-16T07:26:35.471Z,89.33
2022-12-16T07:29:22.680Z,89.44
2022-12-16T07:32:09.945Z,89.52
2022-12-16T07:34:57.521Z,89.53
2022-12-16T07:37:47.289Z,89.23
2022-12-16T07:40:34.557Z,89.44
2022-12-16T07:43:21.432Z,89.57
2022-12-16T07:46:08.876Z,89.73
2022-12-16T07:48:55.891Z,89.71
2022-12-16T07:51:43.008Z,89.82
2022-12-16T07:54:30.347Z,89.87
2022-12-16T07:57:17.870Z,89.95
2022-12-16T08:00:05.038Z,89.94
2022-12-16T08:03:01.525Z,89.61
2022-12-16T08:05:49.150Z,89.33
2022-12-16T08:08:37.217Z,89.61
2022-12-16T08:11:24.855Z,88.55
2022-12-16T08:14:18.584Z,88.37
2022-12-16T08:17:05.741Z,88.01
2022-12-16T08:19:53.436Z,87.52
2022-12-16T08:22:42.355Z,87.66
2022-12-16T08:25:31.674Z,87.35
2022-12-16T08:28:19.082Z,86.25
2022-12-16T08:31:10.637Z,86.24
2022-12-16T08:33:57.665Z,86.15
2022-12-16T08:36:44.899Z,86.16
2022-12-16T08:39:32.284Z,86.43
2022-12-16T08:42:19.775Z,86.54
2022-12-16T08:45:07.229Z,86.48
2022-12-16T08:47:54.535Z,86.63
2022-12-16T08:50:43.552Z,86.63
2022-12-16T08:53:31.551Z,86.59
2022-12-16T08:56:20.880Z,86.29
2022-12-16T08:59:08.270Z,86.81
2022-12-16T09:01:55.829Z,86.75
2022-12-16T09:04:44.101Z,86.12
2022-12-16T09:07:31.493Z,86.33
2022-12-16T09:10:18.756Z,86.64
2022-12-16T09:13:06.353Z,86.93
2022-12-16T09:15:53.873Z,87.21
2022-12-16T09:18:41.812Z,87.80
2022-12-16T09:21:33.265Z,88.36
2022-12-16T09:24:20.707Z,88.72
2022-12-16T09:27:07.672Z,89.02
2022-12-16T09:29:55.826Z,89.82
2022-12-16T09:32:50.510Z,90.39
2022-12-16T09:35:43.009Z,90.71
2022-12-16T09:38:30.141Z,90.99
2022-12-16T09:41:39.763Z,91.21
2022-12-16T09:44:36.847Z,91.38
2022-12-16T09:47:32.991Z,91.42
2022-12-16T09:50:20.278Z,91.72
2022-12-16T09:53:20.794Z,91.56
2022-12-16T09:56:07.652Z,91.40
2022-12-16T09:59:14.409Z,91.71
2022-12-16T10:02:03.028Z,92.01
2022-12-16T10:04:50.886Z,92.23
2022-12-16T10:07:39.965Z,92.64
2022-12-16T10:10:56.201Z,92.94
2022-12-16T10:13:48.940Z,92.94
2022-12-16T10:16:51.610Z,93.25
2022-12-16T10:20:24.965Z,93.43
2022-12-16T10:23:29.366Z,93.96
2022-12-16T10:26:54.385Z,94.55
2022-12-16T10:29:47.508Z,94.63
2022-12-16T10:32:56.524Z,94.36
2022-12-16T10:36:15.341Z,94.52
2022-12-16T10:39:20.964Z,93.96
2022-12-16T10:42:11.664Z,94.14
2022-12-16T10:45:20.926Z,93.38
2022-12-16T10:48:09.327Z,93.30
2022-12-16T10:50:59.327Z,92.99
2022-12-16T10:53:47.088Z,92.54
2022-12-16T10:57:08.740Z,92.66
2022-12-16T10:59:58.797Z,92.69
2022-12-16T11:02:48.344Z,92.66
2022-12-16T11:05:52.140Z,92.84
2022-12-16T11:08:55.699Z,92.47
2022-12-16T11:11:49.476Z,92.35
2022-12-16T11:15:12.578Z,92.50
2022-12-16T11:17:57.468Z,92.01
2022-12-16T11:20:45.156Z,91.85
2022-12-16T11:23:41.147Z,91.72
2022-12-16T11:26:39.266Z,91.24
2022-12-16T11:29:37.185Z,91.13
2022-12-16T11:32:45.789Z,91.08
2022-12-16T11:35:40.626Z,90.97
2022-12-16T11:38:59.056Z,91.09
2022-12-16T11:41:54.128Z,90.54
2022-12-16T11:44:56.168Z,90.75
2022-12-16T11:47:55.526Z,90.81
2022-12-16T11:50:46.918Z,90.91
2022-12-16T11:53:58.410Z,90.04
2022-12-16T11:56:51.961Z,89.62
2022-12-16T11:59:57.333Z,90.37
2022-12-16T12:02:55.185Z,90.70
2022-12-16T12:05:55.881Z,89.70
2022-12-16T12:08:58.143Z,89.74
2022-12-16T12:12:20.659Z,89.43
2022-12-16T12:15:16.651Z,89.36
2022-12-16T12:18:39.102Z,89.33
2022-12-16T12:21:42.944Z,89.94
2022-12-16T12:24:33.467Z,89.43
2022-12-16T12:27:34.229Z,89.61
2022-12-16T12:30:39.490Z,89.61
2022-12-16T12:33:55.029Z,90.09
2022-12-16T12:37:40.757Z,90.19
2022-12-16T12:40:34.371Z,90.40
2022-12-16T12:43:30.775Z,90.75
2022-12-16T12:46:30.256Z,91.41
2022-12-16T12:49:40.395Z,91.20
2022-12-16T12:52:49.338Z,91.61
2022-12-16T12:55:50.220Z,91.85
2022-12-16T12:58:38.574Z,92.59
2022-12-16T13:01:49.510Z,92.55
2022-12-16T13:04:43.372Z,92.48
2022-12-16T13:07:44.404Z,92.07
2022-12-16T13:10:32.817Z,92.20
2022-12-16T13:13:42.825Z,92.43
2022-12-16T13:16:32.226Z,92.77
2022-12-16T13:20:00.186Z,92.66
2022-12-16T13:23:05.299Z,92.93
2022-12-16T13:26:43.084Z,93.21
2022-12-16T13:29:29.799Z,93.70
2022-12-16T13:32:25.688Z,94.40
2022-12-16T13:35:36.847Z,94.31
2022-12-16T13:38:39.041Z,94.26
2022-12-16T13:41:56.984Z,94.19
2022-12-16T13:45:18.429Z,94.00
2022-12-16T13:48:43.600Z,93.88
2022-12-16T13:52:21.133Z,93.66
2022-12-16T13:55:23.018Z,93.24
2022-12-16T13:58:23.875Z,92.81
2022-12-16T14:01:24.163Z,93.04
2022-12-16T14:04:12.314Z,92.69
2022-12-16T14:06:59.989Z,92.76
2022-12-16T14:09:55.124Z,92.52
2022-12-16T14:13:17.741Z,92.53
2022-12-16T14:16:20.911Z,92.08
2022-12-16T14:19:39.087Z,91.71
2022-12-16T14:22:36.790Z,91.90
2022-12-16T14:25:35.904Z,92.14
2022-12-16T14:28:54.218Z,92.05
2022-12-16T14:31:53.823Z,91.54
2022-12-16T14:34:43.257Z,91.90
2022-12-16T14:37:38.320Z,92.30
2022-12-16T14:40:41.974Z,92.30
2022-12-16T14:43:43.290Z,92.05
2022-12-16T14:46:50.678Z,92.27
2022-12-16T14:49:44.795Z,92.55
2022-12-16T14:52:42.899Z,92.32
2022-12-16T14:55:32.957Z,92.12
2022-12-16T14:58:33.469Z,92.80
2022-12-16T15:01:39.939Z,93.27
2022-12-16T15:04:38.177Z,93.20
2022-12-16T15:07:32.537Z,92.85
2022-12-16T15:10:20.294Z,93.36
2022-12-16T15:13:08.568Z,93.87
2022-12-16T15:16:02.604Z,93.68
2022-12-16T15:18:56.284Z,93.57
2022-12-16T15:21:43.944Z,94.16
2022-12-16T15:24:37.974Z,94.58
2022-12-16T15:27:40.901Z,95.37
2022-12-16T15:31:05.750Z,95.97
2022-12-16T15:33:57.745Z,95.99
2022-12-16T15:36:51.014Z,95.49
2022-12-16T15:40:00.326Z,94.76
2022-12-16T15:42:50.475Z,94.42
2022-12-16T15:45:50.109Z,94.02
2022-12-16T15:48:43.016Z,93.91
2022-12-16T15:51:45.174Z,94.36
2022-12-16T15:54:43.400Z,94.58
2022-12-16T15:57:46.570Z,95.37
2022-12-16T16:00:40.406Z,96.02
2022-12-16T16:03:47.494Z,96.17
2022-12-16T16:06:43.280Z,96.14
2022-12-16T16:09:44.863Z,95.77
2022-12-16T16:12:35.876Z,95.64
2022-12-16T16:15:25.078Z,95.57
2022-12-16T16:18:19.211Z,95.35
2022-12-16T16:21:06.630Z,95.58
2022-12-16T16:23:53.744Z,95.64
2022-12-16T16:26:45.504Z,96.04
2022-12-16T16:29:33.652Z,95.62
2022-12-16T16:32:20.752Z,96.36
2022-12-16T16:35:07.981Z,96.03
2022-12-16T16:37:58.464Z,96.27
2022-12-16T16:41:04.133Z,96.62
2022-12-16T16:43:51.629Z,97.15
2022-12-16T16:46:43.523Z,96.78
2022-12-16T16:49:49.801Z,96.86
2022-12-16T16:52:43.817Z,97.03
2022-12-16T16:55:42.435Z,97.25
2022-12-16T16:58:42.193Z,97.45
2022-12-16T17:01:35.548Z,97.47
2022-12-16T17:04:23.408Z,97.66
2022-12-16T17:07:11.007Z,97.56
2022-12-16T17:09:58.514Z,98.13
2022-12-16T17:12:49.445Z,98.62
2022-12-16T17:15:49.947Z,98.95
2022-12-16T17:18:43.090Z,98.93
2022-12-16T17:21:31.634Z,99.11
2022-12-16T17:24:18.884Z,99.48
2022-12-16T17:27:06.309Z,98.61
2022-12-16T17:29:53.426Z,98.65
2022-12-16T17:32:40.472Z,98.44
2022-12-16T17:35:30.753Z,98.55
2022-12-16T17:38:17.808Z,98.04
2022-12-16T17:41:12.316Z,98.96
2022-12-16T17:43:59.649Z,99.29
2022-12-16T17:46:46.568Z,99.50
2022-12-16T17:49:33.858Z,99.30
2022-12-16T17:52:20.995Z,99.04
2022-12-16T17:55:08.405Z,98.26
2022-12-16T17:57:55.716Z,97.70
2022-12-16T18:00:42.909Z,98.11
2022-12-16T18:03:30.136Z,97.69
2022-12-16T18:06:17.449Z,97.51
2022-12-16T18:09:04.684Z,97.92
2022-12-16T18:11:52.056Z,97.90
2022-12-16T18:14:39.453Z,97.44
2022-12-16T18:17:26.794Z,97.57
2022-12-16T18:20:14.304Z,98.22
2022-12-16T18:23:01.420Z,97.65
2022-12-16T18:25:48.645Z,97.32
2022-12-16T18:28:35.917Z,98.22
2022-12-16T18:31:25.794Z,98.41
2022-12-16T18:34:12.914Z,97.88
2022-12-16T18:37:00.009Z,98.20
2022-12-16T18:39:47.285Z,98.60
2022-12-16T18:42:34.370Z,98.60
2022-12-16T18:45:21.799Z,98.18
2022-12-16T18:48:09.002Z,98.30
2022-12-16T18:50:56.279Z,97.79
2022-12-16T18:53:43.259Z,97.85
2022-12-16T18:56:30.365Z,98.36
2022-12-16T18:59:17.757Z,98.42
2022-12-16T19:02:04.964Z,98.96
2022-12-16T19:04:52.209Z,98.79
2022-12-16T19:07:39.400Z,99.21
2022-12-16T19:10:27.385Z,98.72
2022-12-16T19:13:16.610Z,99.04
2022-12-16T19:16:15.696Z,98.96
2022-12-16T19:19:03.538Z,99.26
2022-12-16T19:21:51.920Z,98.93
2022-12-16T19:24:43.425Z,99.24
2022-12-16T19:27:31.957Z,98.87
2022-12-16T19:30:19.076Z,97.90
2022-12-16T19:33:08.890Z,98.08
2022-12-16T19:35:57.024Z,97.99
2022-12-16T19:38:44.042Z,97.83
2022-12-16T19:41:37.219Z,97.67
2022-12-16T19:44:27.351Z,98.00
2022-12-16T19:47:14.860Z,98.10
2022-12-16T19:50:02.137Z,97.69
2022-12-16T19:52:50.349Z,97.50
2022-12-16T19:55:38.982Z,97.88
2022-12-16T19:58:25.981Z,97.46
2022-12-16T20:01:13.361Z,96.95
2022-12-16T20:04:00.614Z,96.79
2022-12-16T20:06:50.425Z,96.61
2022-12-16T20:09:38.999Z,96.16
2022-12-16T20:12:26.150Z,96.22
2022-12-16T20:15:13.337Z,96.64
2022-12-16T20:18:01.069Z,96.92
2022-12-16T20:20:48.371Z,96.98
2022-12-16T20:23:35.535Z,96.45
2022-12-16T20:26:22.757Z,96.30
2022-12-16T20:29:11.582Z,95.79
2022-12-16T20:31:59.011Z,95.27
2022-12-16T20:34:46.115Z,95.62
2022-12-16T20:37:33.561Z,96.30
2022-12-16T20:40:20.770Z,96.81
2022-12-16T20:43:07.847Z,97.14
2022-12-16T20:49:04.370Z,97.35
2022-12-16T20:51:51.589Z,96.91
2022-12-16T20:54:38.863Z,96.39
2022-12-16T20:57:26.249Z,95.90
2022-12-16T21:00:13.578Z,95.84
2022-12-16T21:03:00.899Z,96.15
2022-12-16T21:05:48.383Z,96.33
2022-12-16T21:08:35.262Z,95.97
2022-12-16T21:11:22.310Z,96.49
2022-12-16T21:14:09.555Z,96.78
2022-12-16T21:16:56.853Z,96.50
2022-12-16T21:19:44.276Z,96.52
2022-12-16T21:22:31.739Z,96.64
2022-12-16T21:25:24.436Z,96.48
2022-12-16T21:28:16.564Z,96.45
2022-12-16T21:31:04.139Z,96.23
2022-12-16T21:33:51.536Z,95.88
2022-12-16T21:36:39.473Z,96.46
2022-12-16T21:39:26.900Z,96.80
2022-12-16T21:42:14.151Z,97.12
2022-12-16T21:45:01.466Z,96.60
2022-12-16T21:47:49.109Z,95.87
2022-12-16T21:50:36.605Z,95.63
2022-12-16T21:53:25.870Z,95.50
2022-12-16T21:56:15.359Z,95.98
2022-12-16T21:59:02.609Z,96.15
2022-12-16T22:01:50.045Z,96.20
2022-12-16T22:04:37.520Z,96.56
2022-12-16T22:07:24.588Z,96.98
2022-12-16T22:10:11.922Z,97.03
2022-12-16T22:13:01.326Z,96.10
2022-12-16T22:15:49.540Z,95.98
2022-12-16T22:18:38.936Z,96.03
2022-12-16T22:21:26.066Z,96.06
2022-12-16T22:24:13.509Z,96.26
2022-12-16T22:27:02.239Z,96.27
2022-12-16T22:29:49.473Z,95.55
2022-12-16T22:32:36.985Z,95.79
2022-12-16T22:35:25.331Z,95.75
2022-12-16T22:38:12.578Z,95.45
2022-12-16T22:40:59.664Z,95.94
2022-12-16T22:43:50.979Z,96.42
2022-12-16T22:46:39.505Z,96.25
2022-12-16T22:49:26.700Z,95.83
2022-12-16T22:52:13.971Z,95.51
2022-12-16T22:55:01.773Z,95.75
2022-12-16T22:57:50.931Z,96.04
2022-12-16T23:00:40.593Z,95.77
2022-12-16T23:03:35.491Z,95.76
2022-12-16T23:06:22.783Z,95.47
2022-12-16T23:09:10.082Z,95.40
2022-12-16T23:11:59.880Z,95.60
2022-12-16T23:14:47.094Z,95.81
2022-12-16T23:17:34.244Z,95.70
2022-12-16T23:20:22.042Z,96.08
2022-12-16T23:23:09.456Z,96.20
2022-12-16T23:25:57.163Z,95.80
2022-12-16T23:28:44.631Z,95.25
2022-12-16T23:31:32.202Z,95.90
2022-12-16T23:34:19.679Z,96.14
2022-12-16T23:37:06.579Z,95.77
2022-12-16T23:39:54.119Z,95.66
2022-12-16T23:42:43.320Z,95.70
2022-12-16T23:45:41.462Z,95.88
2022-12-16T23:48:29.693Z,96.50
2022-12-16T23:51:17.052Z,96.21
2022-12-16T23:54:04.225Z,96.67
2022-12-16T23:56:51.864Z,96.70
2022-12-16T23:59:38.961Z,96.24
